createdAt,value
2023-04-12T00:00:58.585Z,10.70
2023-04-12T00:03:26.225Z,10.70
2023-04-12T00:05:56.334Z,10.70
2023-04-12T00:08:26.409Z,10.70
2023-04-12T00:10:53.370Z,10.70
2023-04-12T00:13:20.221Z,10.70
2023-04-12T00:15:47.059Z,10.80
2023-04-12T00:18:13.864Z,10.60
2023-04-12T00:20:41.091Z,10.50
2023-04-12T00:23:09.762Z,10.60
2023-04-12T00:25:39.255Z,10.70
2023-04-12T00:28:06.617Z,10.80
2023-04-12T00:30:33.374Z,10.80
2023-04-12T00:33:00.165Z,10.80
2023-04-12T00:35:26.938Z,10.80
2023-04-12T00:37:54.715Z,10.80
2023-04-12T00:40:21.624Z,10.70
2023-04-12T00:42:48.360Z,10.80
2023-04-12T00:45:15.320Z,10.70
2023-04-12T00:47:43.419Z,10.70
2023-04-12T00:50:11.022Z,10.70
2023-04-12T00:52:39.191Z,10.60
2023-04-12T00:55:07.409Z,10.70
2023-04-12T00:57:37.118Z,10.70
2023-04-12T01:00:12.713Z,10.70
2023-04-12T01:02:47.965Z,10.50
2023-04-12T01:05:22.175Z,10.60
2023-04-12T01:07:58.604Z,10.70
2023-04-12T01:10:36.762Z,10.60
2023-04-12T01:13:21.691Z,10.70
2023-04-12T01:16:00.018Z,10.60
2023-04-12T01:18:30.649Z,10.60
2023-04-12T01:21:10.718Z,10.60
2023-04-12T01:24:03.943Z,10.70
2023-04-12T01:26:37.047Z,10.70
2023-04-12T01:29:10.096Z,10.50
2023-04-12T01:31:39.821Z,10.60
2023-04-12T01:34:09.469Z,10.70
2023-04-12T01:36:38.801Z,10.70
2023-04-12T01:39:07.412Z,10.60
2023-04-12T01:41:38.616Z,10.70
2023-04-12T01:44:05.305Z,10.70
2023-04-12T01:46:32.595Z,10.50
2023-04-12T01:48:59.434Z,10.50
2023-04-12T01:51:44.706Z,10.50
2023-04-12T01:54:21.024Z,10.60
2023-04-12T01:56:53.024Z,10.50
2023-04-12T01:59:21.119Z,10.60
2023-04-12T02:01:48.557Z,10.60
2023-04-12T02:04:20.392Z,10.60
2023-04-12T02:06:48.163Z,10.50
2023-04-12T02:09:14.809Z,10.50
2023-04-12T02:11:45.939Z,10.60
2023-04-12T02:14:12.698Z,10.50
2023-04-12T02:16:42.253Z,10.60
2023-04-12T02:19:10.718Z,10.60
2023-04-12T02:21:46.733Z,10.60
2023-04-12T02:24:13.552Z,10.50
2023-04-12T02:26:43.045Z,10.30
2023-04-12T02:29:10.484Z,10.30
2023-04-12T02:31:38.920Z,10.30
2023-04-12T02:34:06.025Z,10.30
2023-04-12T02:36:32.796Z,10.30
2023-04-12T02:38:59.607Z,10.20
2023-04-12T02:41:26.411Z,10.30
2023-04-12T02:43:53.195Z,10.20
2023-04-12T02:46:23.167Z,10.20
2023-04-12T02:48:50.365Z,10.00
2023-04-12T02:51:17.182Z,10.10
2023-04-12T02:53:44.186Z,10.10
2023-04-12T02:56:11.180Z,10.10
2023-04-12T02:58:38.152Z,10.10
2023-04-12T03:01:07.933Z,10.20
2023-04-12T03:03:35.645Z,10.20
2023-04-12T03:06:02.965Z,10.20
2023-04-12T03:08:29.712Z,10.10
2023-04-12T03:10:57.328Z,10.10
2023-04-12T03:13:24.241Z,10.20
2023-04-12T03:15:59.353Z,10.20
2023-04-12T03:18:26.550Z,10.20
2023-04-12T03:20:53.272Z,10.20
2023-04-12T03:23:20.638Z,10.30
2023-04-12T03:25:47.532Z,10.30
2023-04-12T03:28:14.328Z,10.30
2023-04-12T03:30:41.134Z,10.30
2023-04-12T03:33:08.046Z,10.30
2023-04-12T03:35:34.790Z,10.20
2023-04-12T03:38:01.528Z,10.20
2023-04-12T03:40:28.283Z,10.20
2023-04-12T03:42:55.058Z,10.30
2023-04-12T03:45:21.866Z,10.30
2023-04-12T03:47:48.685Z,10.30
2023-04-12T03:50:15.444Z,10.30
2023-04-12T03:52:42.185Z,10.20
2023-04-12T03:55:09.403Z,10.20
2023-04-12T03:57:36.301Z,10.30
2023-04-12T04:00:04.217Z,10.20
2023-04-12T04:02:31.924Z,10.10
2023-04-12T04:04:59.075Z,10.20
2023-04-12T04:07:26.496Z,10.20
2023-04-12T04:09:54.741Z,10.10
2023-04-12T04:12:21.415Z,10.10
2023-04-12T04:14:48.112Z,10.20
2023-04-12T04:17:14.986Z,10.20
2023-04-12T04:19:41.726Z,10.30
2023-04-12T04:22:10.088Z,10.30
2023-04-12T04:24:39.070Z,10.20
2023-04-12T04:27:06.506Z,10.20
2023-04-12T04:29:33.784Z,10.00
2023-04-12T04:32:00.673Z,9.90
2023-04-12T04:34:27.454Z,9.80
2023-04-12T04:36:54.243Z,9.80
2023-04-12T04:39:20.978Z,9.70
2023-04-12T04:41:54.439Z,9.80
2023-04-12T04:44:21.797Z,9.80
2023-04-12T04:46:49.065Z,9.80
2023-04-12T04:49:16.199Z,9.80
2023-04-12T04:51:42.971Z,9.80
2023-04-12T04:54:09.794Z,9.80
2023-04-12T04:56:36.596Z,9.80
2023-04-12T04:59:03.388Z,9.80
2023-04-12T05:01:30.226Z,9.90
2023-04-12T05:03:57.257Z,9.90
2023-04-12T05:06:24.048Z,9.90
2023-04-12T05:08:52.478Z,9.90
2023-04-12T05:11:19.944Z,9.90
2023-04-12T05:13:46.770Z,9.90
2023-04-12T05:16:13.929Z,9.90
2023-04-12T05:18:40.870Z,9.80
2023-04-12T05:21:07.810Z,9.70
2023-04-12T05:23:42.040Z,9.70
2023-04-12T05:26:08.758Z,9.70
2023-04-12T05:28:35.457Z,9.60
2023-04-12T05:31:02.276Z,9.70
2023-04-12T05:33:30.281Z,9.70
2023-04-12T05:35:58.349Z,9.70
2023-04-12T05:38:25.150Z,9.80
2023-04-12T05:40:51.992Z,9.70
2023-04-12T05:43:18.753Z,9.80
2023-04-12T05:45:45.505Z,9.90
2023-04-12T05:48:12.327Z,9.90
2023-04-12T05:50:39.308Z,9.80
2023-04-12T05:53:06.361Z,9.70
2023-04-12T05:55:33.341Z,9.70
2023-04-12T05:58:01.260Z,9.80
2023-04-12T06:00:28.101Z,9.90
2023-04-12T06:02:54.963Z,10.00
2023-04-12T06:05:22.849Z,10.10
2023-04-12T06:07:49.801Z,10.10
2023-04-12T06:11:19.318Z,10.10
2023-04-12T06:13:46.056Z,10.20
2023-04-12T06:16:13.614Z,10.20
2023-04-12T06:18:40.371Z,10.20
2023-04-12T06:21:07.186Z,10.20
2023-04-12T06:23:33.934Z,10.20
2023-04-12T06:26:00.682Z,10.30
2023-04-12T06:28:27.403Z,10.30
2023-04-12T06:30:55.225Z,10.30
2023-04-12T06:33:24.721Z,10.30
2023-04-12T06:35:51.481Z,10.30
2023-04-12T06:38:19.096Z,10.40
2023-04-12T06:40:45.871Z,10.40
2023-04-12T06:43:12.868Z,10.40
2023-04-12T06:45:39.594Z,10.30
2023-04-12T06:48:08.730Z,10.40
2023-04-12T06:50:35.702Z,10.40
2023-04-12T06:53:02.479Z,10.40
2023-04-12T06:55:29.481Z,10.50
2023-04-12T06:57:56.406Z,10.40
2023-04-12T07:00:23.418Z,10.50
2023-04-12T07:02:50.337Z,10.50
2023-04-12T07:05:17.224Z,10.50
2023-04-12T07:07:45.442Z,10.50
2023-04-12T07:10:12.534Z,10.60
2023-04-12T07:12:39.363Z,10.50
2023-04-12T07:15:06.631Z,10.60
2023-04-12T07:17:33.471Z,10.70
2023-04-12T07:20:00.237Z,10.60
2023-04-12T07:22:27.144Z,10.70
2023-04-12T07:24:53.844Z,10.70
2023-04-12T07:27:20.696Z,10.60
2023-04-12T07:29:47.497Z,10.60
2023-04-12T07:32:14.340Z,10.70
2023-04-12T07:34:41.387Z,10.70
2023-04-12T07:37:08.388Z,10.50
2023-04-12T07:39:36.194Z,10.50
2023-04-12T07:42:03.153Z,10.50
2023-04-12T07:44:31.568Z,10.50
2023-04-12T07:46:58.351Z,10.50
2023-04-12T07:49:25.221Z,10.60
2023-04-12T07:51:51.964Z,10.60
2023-04-12T07:54:18.678Z,10.60
2023-04-12T07:56:59.131Z,10.60
2023-04-12T07:59:26.057Z,10.70
2023-04-12T08:01:52.811Z,10.60
2023-04-12T08:04:19.910Z,10.70
2023-04-12T08:06:46.745Z,10.70
2023-04-12T08:09:13.497Z,10.70
2023-04-12T08:11:40.240Z,10.80
2023-04-12T08:14:06.958Z,10.80
2023-04-12T08:16:33.788Z,10.80
2023-04-12T08:19:00.541Z,10.90
2023-04-12T08:21:27.736Z,10.90
2023-04-12T08:23:54.628Z,10.90
2023-04-12T08:26:21.626Z,11.00
2023-04-12T08:28:48.688Z,11.00
2023-04-12T08:31:18.831Z,11.00
2023-04-12T08:33:45.748Z,11.10
2023-04-12T08:36:12.501Z,11.10
2023-04-12T08:38:45.602Z,11.10
2023-04-12T08:41:14.472Z,11.10
2023-04-12T08:43:45.456Z,11.10
2023-04-12T08:46:15.741Z,11.20
2023-04-12T08:48:48.870Z,11.30
2023-04-12T08:51:20.451Z,11.20
2023-04-12T08:53:47.492Z,11.30
2023-04-12T08:56:15.033Z,11.30
2023-04-12T08:58:46.630Z,11.30
2023-04-12T09:01:18.619Z,11.30
2023-04-12T09:03:47.011Z,11.40
2023-04-12T09:06:14.124Z,11.40
2023-04-12T09:08:55.584Z,11.40
2023-04-12T09:11:24.598Z,11.50
2023-04-12T09:13:51.686Z,11.50
2023-04-12T09:16:20.284Z,11.50
2023-04-12T09:18:51.274Z,11.50
2023-04-12T09:21:18.794Z,11.50
2023-04-12T09:24:01.847Z,11.50
2023-04-12T09:26:29.222Z,11.50
2023-04-12T09:28:56.069Z,11.50
2023-04-12T09:31:22.935Z,11.60
2023-04-12T09:33:49.714Z,11.60
2023-04-12T09:36:17.613Z,11.60
2023-04-12T09:39:05.861Z,11.60
2023-04-12T09:41:32.960Z,11.70
2023-04-12T09:44:01.057Z,11.70
2023-04-12T09:46:28.247Z,11.70
2023-04-12T09:48:58.866Z,11.70
2023-04-12T09:51:31.274Z,11.80
2023-04-12T09:54:03.254Z,11.80
2023-04-12T09:56:32.294Z,11.80
2023-04-12T09:59:04.253Z,11.90
2023-04-12T10:01:40.770Z,11.90
2023-04-12T10:04:09.681Z,12.00
2023-04-12T10:06:37.315Z,12.00
2023-04-12T10:09:05.526Z,12.00
2023-04-12T10:11:34.154Z,12.10
2023-04-12T10:14:03.570Z,12.10
2023-04-12T10:16:33.620Z,12.20
2023-04-12T10:19:02.504Z,12.20
2023-04-12T10:21:29.601Z,12.30
2023-04-12T10:23:56.489Z,12.30
2023-04-12T10:26:23.270Z,12.30
2023-04-12T10:29:28.306Z,12.30
2023-04-12T10:32:18.474Z,12.30
2023-04-12T10:34:49.934Z,12.30
2023-04-12T10:37:16.804Z,12.40
2023-04-12T10:39:45.449Z,12.40
2023-04-12T10:42:23.561Z,12.40
2023-04-12T10:44:52.247Z,12.40
2023-04-12T10:47:54.550Z,12.50
2023-04-12T10:50:29.993Z,12.60
2023-04-12T10:53:21.704Z,12.80
2023-04-12T10:55:48.655Z,12.90
2023-04-12T10:58:46.478Z,13.10
2023-04-12T11:01:13.739Z,13.20
2023-04-12T11:04:05.843Z,13.30
2023-04-12T11:06:53.780Z,13.20
2023-04-12T11:09:28.540Z,13.30
2023-04-12T11:12:04.531Z,13.20
2023-04-12T11:14:34.287Z,13.20
2023-04-12T11:17:07.343Z,13.10
2023-04-12T11:19:37.550Z,13.10
2023-04-12T11:22:06.311Z,13.10
2023-04-12T11:24:33.257Z,13.00
2023-04-12T11:27:01.009Z,12.90
2023-04-12T11:29:28.079Z,12.90
2023-04-12T11:31:56.072Z,12.90
2023-04-12T11:34:22.907Z,12.90
2023-04-12T11:36:53.798Z,12.90
2023-04-12T11:39:21.305Z,12.90
2023-04-12T11:41:49.016Z,12.90
2023-04-12T11:44:21.765Z,13.00
2023-04-12T11:46:51.645Z,13.10
2023-04-12T11:49:20.096Z,13.10
2023-04-12T11:51:49.470Z,13.10
2023-04-12T11:54:16.517Z,13.10
2023-04-12T11:56:43.253Z,13.00
2023-04-12T11:59:09.960Z,13.00
2023-04-12T12:01:37.784Z,12.90
2023-04-12T12:04:05.703Z,12.90
2023-04-12T12:06:33.587Z,12.90
2023-04-12T12:09:01.038Z,12.80
2023-04-12T12:11:27.838Z,12.80
2023-04-12T12:13:56.016Z,12.80
2023-04-12T12:16:28.363Z,12.80
2023-04-12T12:18:56.368Z,12.80
2023-04-12T12:21:23.465Z,12.80
2023-04-12T12:23:50.839Z,12.70
2023-04-12T12:26:26.123Z,12.70
2023-04-12T12:28:55.638Z,12.70
2023-04-12T12:31:26.629Z,12.70
2023-04-12T12:33:58.542Z,12.80
2023-04-12T12:36:33.530Z,12.80
2023-04-12T12:39:18.300Z,12.90
2023-04-12T12:41:54.307Z,12.90
2023-04-12T12:44:21.314Z,12.90
2023-04-12T12:46:56.999Z,12.90
2023-04-12T12:49:27.754Z,12.90
2023-04-12T12:51:54.744Z,13.00
2023-04-12T12:54:36.812Z,13.00
2023-04-12T12:57:07.607Z,13.00
2023-04-12T12:59:34.484Z,13.00
2023-04-12T13:02:01.602Z,13.00
2023-04-12T13:04:28.963Z,12.90
2023-04-12T13:06:55.783Z,12.90
2023-04-12T13:09:22.500Z,12.90
2023-04-12T13:11:49.235Z,12.80
2023-04-12T13:14:15.994Z,12.90
2023-04-12T13:16:42.831Z,12.90
2023-04-12T13:19:10.079Z,12.90
2023-04-12T13:21:36.764Z,12.90
2023-04-12T13:24:03.641Z,12.90
2023-04-12T13:26:31.331Z,13.00
2023-04-12T13:28:58.334Z,13.10
2023-04-12T13:31:25.925Z,13.10
2023-04-12T13:33:52.638Z,13.20
2023-04-12T13:36:19.267Z,13.20
2023-04-12T13:38:46.012Z,13.20
2023-04-12T13:41:12.679Z,13.20
2023-04-12T13:43:40.865Z,13.30
2023-04-12T13:46:07.589Z,13.20
2023-04-12T13:48:34.354Z,13.20
2023-04-12T13:51:01.109Z,13.30
2023-04-12T13:53:28.322Z,13.30
2023-04-12T13:55:55.112Z,13.30
2023-04-12T13:58:21.825Z,13.20
2023-04-12T14:00:48.555Z,13.10
2023-04-12T14:03:15.484Z,12.80
2023-04-12T14:05:43.530Z,12.50
2023-04-12T14:08:19.355Z,12.30
2023-04-12T14:10:47.092Z,12.20
2023-04-12T14:13:15.270Z,12.10
2023-04-12T14:15:42.259Z,12.00
2023-04-12T14:18:09.185Z,11.80
2023-04-12T14:20:35.991Z,11.80
2023-04-12T14:23:03.816Z,11.80
2023-04-12T14:25:31.274Z,11.60
2023-04-12T14:27:58.199Z,11.60
2023-04-12T14:30:26.087Z,11.60
2023-04-12T14:32:55.612Z,11.60
2023-04-12T14:35:22.978Z,11.50
2023-04-12T14:37:49.770Z,11.50
2023-04-12T14:40:18.486Z,11.50
2023-04-12T14:42:45.568Z,11.50
2023-04-12T14:45:12.476Z,11.50
2023-04-12T14:47:39.189Z,11.50
2023-04-12T14:50:06.582Z,11.50
2023-04-12T14:52:33.491Z,11.50
2023-04-12T14:55:01.349Z,11.50
2023-04-12T14:57:28.015Z,11.60
2023-04-12T14:59:54.647Z,11.70
2023-04-12T15:02:24.045Z,11.80
2023-04-12T15:04:51.787Z,11.80
2023-04-12T15:07:18.511Z,11.80
2023-04-12T15:09:45.654Z,11.80
2023-04-12T15:12:43.438Z,11.80
2023-04-12T15:15:11.090Z,11.90
2023-04-12T15:17:38.150Z,11.90
2023-04-12T15:20:12.518Z,11.90
2023-04-12T15:22:40.397Z,11.80
2023-04-12T15:25:07.797Z,11.70
2023-04-12T15:27:35.072Z,11.70
2023-04-12T15:30:02.157Z,11.70
2023-04-12T15:32:29.222Z,11.60
2023-04-12T15:34:56.286Z,11.60
2023-04-12T15:37:23.264Z,11.50
2023-04-12T15:39:50.098Z,11.50
2023-04-12T15:42:17.141Z,11.50
2023-04-12T15:44:45.397Z,11.40
2023-04-12T15:47:12.501Z,11.30
2023-04-12T15:49:40.077Z,11.40
2023-04-12T15:52:06.768Z,11.40
2023-04-12T15:54:33.557Z,11.30
2023-04-12T15:57:08.481Z,11.40
2023-04-12T15:59:37.021Z,11.40
2023-04-12T16:02:06.699Z,11.40
2023-04-12T16:04:33.683Z,11.30
2023-04-12T16:07:02.216Z,11.40
2023-04-12T16:09:30.001Z,11.50
2023-04-12T16:11:57.340Z,11.40
2023-04-12T16:14:24.106Z,11.40
2023-04-12T16:16:50.793Z,11.40
2023-04-12T16:19:18.605Z,11.40
2023-04-12T16:21:45.966Z,11.40
2023-04-12T16:24:13.395Z,11.40
2023-04-12T16:26:41.524Z,11.40
2023-04-12T16:29:08.709Z,11.40
2023-04-12T16:31:35.686Z,11.40
2023-04-12T16:34:02.528Z,11.40
2023-04-12T16:36:31.567Z,11.30
2023-04-12T16:38:59.678Z,11.40
2023-04-12T16:41:26.540Z,11.30
2023-04-12T16:43:55.515Z,11.30
2023-04-12T16:46:22.807Z,11.30
2023-04-12T16:48:49.641Z,11.30
2023-04-12T16:51:16.908Z,11.20
2023-04-12T16:53:44.111Z,11.20
2023-04-12T16:56:10.830Z,11.10
2023-04-12T16:58:37.615Z,11.10
2023-04-12T17:01:04.399Z,11.20
2023-04-12T17:03:31.613Z,11.20
2023-04-12T17:05:58.388Z,11.20
2023-04-12T17:08:25.048Z,11.30
2023-04-12T17:10:51.738Z,11.30
2023-04-12T17:13:20.340Z,11.40
2023-04-12T17:15:48.385Z,11.30
2023-04-12T17:18:15.477Z,11.30
2023-04-12T17:20:42.722Z,11.30
2023-04-12T17:23:10.173Z,11.20
2023-04-12T17:25:37.550Z,11.10
2023-04-12T17:28:04.394Z,11.10
2023-04-12T17:30:31.387Z,11.10
2023-04-12T17:33:01.260Z,11.10
2023-04-12T17:35:28.540Z,11.20
2023-04-12T17:37:55.433Z,11.10
2023-04-12T17:40:22.533Z,11.10
2023-04-12T17:42:49.371Z,11.10
2023-04-12T17:45:18.489Z,11.00
2023-04-12T17:47:45.391Z,11.00
2023-04-12T17:50:12.530Z,11.00
2023-04-12T17:52:39.593Z,11.00
2023-04-12T17:55:09.072Z,11.00
2023-04-12T17:57:35.925Z,11.00
2023-04-12T18:00:03.116Z,11.00
2023-04-12T18:02:30.176Z,11.00
2023-04-12T18:04:57.375Z,11.00
2023-04-12T18:07:24.182Z,10.90
2023-04-12T18:09:51.372Z,10.90
2023-04-12T18:12:18.416Z,10.80
2023-04-12T18:14:45.517Z,10.80
2023-04-12T18:17:12.664Z,10.80
2023-04-12T18:19:40.028Z,10.70
2023-04-12T18:22:06.910Z,10.70
2023-04-12T18:24:34.172Z,10.80
2023-04-12T18:27:06.227Z,10.70
2023-04-12T18:29:33.475Z,10.70
2023-04-12T18:32:02.721Z,10.70
2023-04-12T18:34:30.053Z,10.70
2023-04-12T18:36:58.741Z,10.70
2023-04-12T18:39:25.985Z,10.70
2023-04-12T18:41:53.174Z,10.60
2023-04-12T18:44:20.291Z,10.60
2023-04-12T18:46:47.338Z,10.60
2023-04-12T18:49:17.062Z,10.60
2023-04-12T18:51:43.881Z,10.60
2023-04-12T18:54:13.790Z,10.60
2023-04-12T18:56:42.395Z,10.70
2023-04-12T18:59:11.925Z,10.60
2023-04-12T19:01:38.776Z,10.70
2023-04-12T19:04:05.932Z,10.70
2023-04-12T19:06:33.093Z,10.70
2023-04-12T19:09:00.249Z,10.70
2023-04-12T19:11:27.769Z,10.70
2023-04-12T19:13:56.244Z,10.70
2023-04-12T19:16:24.562Z,10.70
2023-04-12T19:18:51.768Z,10.70
2023-04-12T19:21:18.503Z,10.70
2023-04-12T19:23:45.262Z,10.70
2023-04-12T19:26:12.936Z,10.60
2023-04-12T19:28:40.001Z,10.60
2023-04-12T19:31:10.766Z,10.60
2023-04-12T19:33:39.909Z,10.50
2023-04-12T19:36:07.455Z,10.60
2023-04-12T19:38:34.167Z,10.50
2023-04-12T19:41:00.901Z,10.60
2023-04-12T19:43:27.627Z,10.60
2023-04-12T19:45:57.252Z,10.50
2023-04-12T19:48:23.985Z,10.50
2023-04-12T19:50:50.802Z,10.60
2023-04-12T19:53:18.322Z,10.60
2023-04-12T19:55:45.396Z,10.60
2023-04-12T19:58:13.978Z,10.60
2023-04-12T20:00:41.340Z,10.50
2023-04-12T20:03:09.335Z,10.50
2023-04-12T20:05:38.544Z,10.50
2023-04-12T20:08:05.416Z,10.40
2023-04-12T20:10:32.291Z,10.50
2023-04-12T20:12:59.319Z,10.50
2023-04-12T20:15:26.334Z,10.40
2023-04-12T20:17:53.282Z,10.40
2023-04-12T20:20:20.358Z,10.30
2023-04-12T20:22:51.897Z,10.30
2023-04-12T20:25:20.650Z,10.30
2023-04-12T20:27:52.035Z,10.20
2023-04-12T20:30:21.220Z,10.20
2023-04-12T20:32:54.309Z,10.10
2023-04-12T20:35:21.647Z,10.10
2023-04-12T20:37:50.696Z,10.10
2023-04-12T20:40:18.609Z,10.10
2023-04-12T20:42:46.045Z,10.00
2023-04-12T20:45:14.079Z,10.00
2023-04-12T20:47:40.823Z,10.00
2023-04-12T20:50:08.232Z,10.00
2023-04-12T20:52:35.089Z,9.90
2023-04-12T20:55:02.485Z,9.90
2023-04-12T20:57:30.168Z,9.90
2023-04-12T20:59:56.867Z,9.90
2023-04-12T21:02:23.857Z,9.80
2023-04-12T21:04:50.893Z,9.80
2023-04-12T21:07:21.262Z,9.80
2023-04-12T21:09:48.497Z,9.70
2023-04-12T21:12:15.291Z,9.70
2023-04-12T21:14:41.984Z,9.70
2023-04-12T21:17:08.759Z,9.70
2023-04-12T21:19:42.024Z,9.60
2023-04-12T21:22:08.965Z,9.60
2023-04-12T21:24:38.422Z,9.60
2023-04-12T21:27:08.910Z,9.50
2023-04-12T21:29:41.214Z,9.50
2023-04-12T21:32:09.091Z,9.60
2023-04-12T21:34:36.096Z,9.50
2023-04-12T21:37:04.321Z,9.50
2023-04-12T21:39:34.389Z,9.40
2023-04-12T21:42:01.623Z,9.40
2023-04-12T21:44:28.400Z,9.30
2023-04-12T21:46:55.116Z,9.30
2023-04-12T21:49:21.990Z,9.40
2023-04-12T21:51:49.335Z,9.40
2023-04-12T21:54:16.725Z,9.40
2023-04-12T21:56:43.824Z,9.30
2023-04-12T21:59:10.674Z,9.30
2023-04-12T22:01:37.981Z,9.30
2023-04-12T22:04:04.831Z,9.40
2023-04-12T22:06:31.565Z,9.30
2023-04-12T22:09:01.919Z,9.30
2023-04-12T22:11:29.986Z,9.40
2023-04-12T22:13:57.179Z,9.40
2023-04-12T22:16:24.774Z,9.50
2023-04-12T22:18:52.850Z,9.40
2023-04-12T22:21:19.808Z,9.30
2023-04-12T22:23:46.856Z,9.40
2023-04-12T22:26:13.735Z,9.40
2023-04-12T22:28:41.488Z,9.30
2023-04-12T22:31:08.655Z,9.30
2023-04-12T22:33:37.051Z,9.30
2023-04-12T22:36:06.239Z,9.20
2023-04-12T22:38:37.369Z,9.20
2023-04-12T22:41:04.219Z,9.10
2023-04-12T22:43:34.323Z,9.10
2023-04-12T22:46:02.182Z,9.10
2023-04-12T22:48:32.259Z,9.10
2023-04-12T22:51:00.494Z,9.10
2023-04-12T22:53:27.873Z,9.00
2023-04-12T22:55:55.617Z,9.00
2023-04-12T22:58:22.836Z,8.90
2023-04-12T23:00:50.791Z,8.80
2023-04-12T23:03:18.416Z,8.90
2023-04-12T23:05:48.098Z,8.90
2023-04-12T23:08:14.798Z,8.90
2023-04-12T23:10:45.357Z,8.80
2023-04-12T23:13:12.143Z,8.70
2023-04-12T23:15:45.412Z,8.70
2023-04-12T23:18:12.603Z,8.60
2023-04-12T23:20:40.429Z,8.70
2023-04-12T23:23:07.218Z,8.60
2023-04-12T23:25:39.214Z,8.70
2023-04-12T23:28:19.475Z,8.70
2023-04-12T23:30:48.618Z,8.70
2023-04-12T23:33:18.190Z,8.70
2023-04-12T23:35:46.995Z,8.60
2023-04-12T23:38:23.102Z,8.60
2023-04-12T23:40:53.566Z,8.60
2023-04-12T23:43:21.509Z,8.50
2023-04-12T23:45:48.610Z,8.40
2023-04-12T23:48:16.558Z,8.40
2023-04-12T23:50:45.851Z,8.40
2023-04-12T23:53:13.282Z,8.40
2023-04-12T23:55:42.175Z,8.40
2023-04-12T23:58:09.495Z,8.40
